Time;durP1;ratioP1;P1;durP2;ratioP2;P2;SDS_P1;SDS_P2;PMS_P1;PMS_P2;Temp;Humidity;BMP_temperature;BMP_pressure;BME280_temperature;BME280_humidity;BME280_pressure;Samples;Min_cycle;Max_cycle;Signal;HPM_P1;HPM_P2
2023/08/28 00:01:16;;;;;;;3.25;1.40;;;13.70;99.90;;;;;;5075054;28;20384;-78
2023/08/28 00:03:43;;;;;;;5.78;1.60;;;13.70;99.90;;;;;;5073454;28;20036;-79
2023/08/28 00:06:08;;;;;;;2.85;1.50;;;13.70;99.90;;;;;;5073186;28;20032;-79
2023/08/28 00:08:34;;;;;;;2.10;1.50;;;13.80;99.90;;;;;;5073942;28;20351;-78
2023/08/28 00:11:00;;;;;;;4.40;1.60;;;13.80;99.90;;;;;;5072901;28;20100;-78
2023/08/28 00:13:25;;;;;;;4.40;2.00;;;13.80;99.90;;;;;;5073278;28;20044;-78
2023/08/28 00:15:52;;;;;;;3.10;1.58;;;13.70;99.90;;;;;;5073066;28;20040;-78
2023/08/28 00:18:17;;;;;;;3.67;1.60;;;13.70;99.90;;;;;;5056582;28;20380;-78
2023/08/28 00:20:43;;;;;;;4.88;1.70;;;13.70;99.90;;;;;;5073687;28;20043;-78
2023/08/28 00:23:09;;;;;;;6.20;1.80;;;13.60;99.90;;;;;;5056186;28;20032;-78
2023/08/28 00:25:36;;;;;;;3.22;1.50;;;13.60;99.90;;;;;;5073259;28;20042;-78
2023/08/28 00:28:01;;;;;;;5.78;1.80;;;13.60;99.90;;;;;;5072879;28;20554;-79
2023/08/28 00:30:27;;;;;;;3.92;1.55;;;13.60;99.90;;;;;;5073287;28;20120;-78
2023/08/28 00:32:52;;;;;;;3.42;1.70;;;13.60;99.90;;;;;;5084390;28;20039;-78
2023/08/28 00:35:18;;;;;;;3.47;1.70;;;13.60;99.90;;;;;;5069916;28;20044;-79
2023/08/28 00:37:43;;;;;;;4.40;1.48;;;13.50;99.90;;;;;;5072071;28;20032;-78
2023/08/28 00:40:13;;;;;;;4.68;1.70;;;13.50;99.90;;;;;;5084886;28;20032;-78
2023/08/28 00:42:39;;;;;;;2.40;1.40;;;13.50;99.90;;;;;;5079793;28;20033;-78
2023/08/28 00:45:05;;;;;;;4.03;1.60;;;13.50;99.90;;;;;;5068802;28;20119;-78
2023/08/28 00:47:30;;;;;;;2.33;1.52;;;13.40;99.90;;;;;;5069306;28;20055;-78
2023/08/28 00:49:56;;;;;;;4.88;1.58;;;13.40;99.90;;;;;;5065295;28;20036;-78
2023/08/28 00:52:21;;;;;;;4.22;1.33;;;13.30;99.90;;;;;;5069407;28;20040;-78
2023/08/28 00:54:47;;;;;;;2.70;1.52;;;13.30;99.90;;;;;;5061212;28;20419;-78
2023/08/28 00:57:14;;;;;;;2.83;1.55;;;13.30;99.90;;;;;;5067843;28;20032;-78
2023/08/28 00:59:42;;;;;;;3.60;1.33;;;13.30;99.90;;;;;;5060738;28;20060;-78
2023/08/28 01:02:08;;;;;;;4.18;1.70;;;13.30;99.90;;;;;;5061446;28;20044;-78
2023/08/28 01:04:33;;;;;;;2.85;1.60;;;13.30;99.90;;;;;;5052660;28;20510;-78
2023/08/28 01:07:14;;;;;;;3.90;1.85;;;13.30;99.90;;;;;;5056805;28;20097;-79
2023/08/28 01:09:52;;;;;;;4.35;1.83;;;13.20;99.90;;;;;;5082856;28;20517;-79
2023/08/28 01:12:26;;;;;;;4.35;1.70;;;13.20;99.90;;;;;;5073281;28;20036;-79
2023/08/28 01:14:58;;;;;;;2.90;1.63;;;13.20;99.90;;;;;;5072348;28;20515;-79
2023/08/28 01:17:24;;;;;;;2.70;1.70;;;13.20;99.90;;;;;;5071906;28;20419;-79
2023/08/28 01:19:51;;;;;;;5.00;1.80;;;13.20;99.90;;;;;;5072113;28;20035;-79
2023/08/28 01:22:30;;;;;;;3.15;1.60;;;13.10;99.90;;;;;;5072830;28;20398;-78
2023/08/28 01:25:10;;;;;;;4.13;1.60;;;13.10;99.90;;;;;;5053205;28;20110;-78
2023/08/28 01:27:37;;;;;;;3.88;1.60;;;13.10;99.90;;;;;;5069615;28;20028;-78
2023/08/28 01:30:14;;;;;;;3.35;1.50;;;13.10;99.90;;;;;;5071599;28;20515;-78
2023/08/28 01:32:42;;;;;;;3.30;1.60;;;13.10;99.90;;;;;;5068649;28;20062;-78
2023/08/28 01:35:17;;;;;;;3.25;1.42;;;13.10;99.90;;;;;;5070583;28;20502;-78
2023/08/28 01:37:46;;;;;;;3.38;1.67;;;13.10;99.90;;;;;;5065706;28;20097;-78
2023/08/28 01:40:15;;;;;;;2.03;1.40;;;13.10;99.90;;;;;;5054687;28;20040;-77
2023/08/28 01:42:44;;;;;;;3.00;1.23;;;13.10;99.90;;;;;;5072030;28;20530;-78
2023/08/28 01:45:11;;;;;;;2.83;1.42;;;13.00;99.90;;;;;;5071260;28;20122;-78
2023/08/28 01:47:37;;;;;;;1.90;1.30;;;13.00;99.90;;;;;;5055384;28;20036;-78
2023/08/28 01:50:02;;;;;;;2.22;1.15;;;13.00;99.90;;;;;;5055577;28;20028;-78
2023/08/28 01:52:28;;;;;;;2.22;1.30;;;12.90;99.90;;;;;;5072611;28;20081;-78
2023/08/28 01:54:54;;;;;;;2.78;1.50;;;12.90;99.90;;;;;;5071917;28;20372;-78
2023/08/28 01:57:19;;;;;;;1.88;1.15;;;12.90;99.90;;;;;;5071272;28;20035;-78
2023/08/28 01:59:45;;;;;;;1.83;1.10;;;12.80;99.90;;;;;;5067489;28;20073;-78
2023/08/28 02:02:10;;;;;;;1.50;1.00;;;12.90;99.90;;;;;;5071448;28;20032;-78
2023/08/28 02:04:36;;;;;;;3.03;1.30;;;12.90;99.90;;;;;;5054658;28;20040;-78
2023/08/28 02:07:01;;;;;;;3.00;1.38;;;12.90;99.90;;;;;;5072043;28;20059;-78
2023/08/28 02:09:27;;;;;;;2.35;1.27;;;12.90;99.90;;;;;;5073103;28;20039;-78
2023/08/28 02:11:52;;;;;;;1.77;1.08;;;12.80;99.90;;;;;;5076333;28;20130;-78
2023/08/28 02:14:18;;;;;;;2.60;1.50;;;12.80;99.90;;;;;;5058880;28;20127;-78
2023/08/28 02:16:43;;;;;;;2.95;1.30;;;12.80;99.90;;;;;;5070302;28;20131;-78
2023/08/28 02:19:09;;;;;;;1.65;1.17;;;12.80;99.90;;;;;;5063518;28;20127;-78
2023/08/28 02:21:34;;;;;;;1.10;0.95;;;12.80;99.90;;;;;;5066612;28;20032;-78
2023/08/28 02:24:00;;;;;;;1.92;1.15;;;12.80;99.90;;;;;;5067617;28;20406;-77
2023/08/28 02:26:26;;;;;;;3.15;1.40;;;12.80;99.90;;;;;;5060973;28;20571;-78
2023/08/28 02:28:51;;;;;;;2.38;1.65;;;12.70;99.90;;;;;;5076262;28;20529;-78
2023/08/28 02:31:17;;;;;;;2.28;1.60;;;12.70;99.90;;;;;;5065626;28;20044;-78
2023/08/28 02:33:43;;;;;;;3.15;1.30;;;12.70;99.90;;;;;;5066564;28;20062;-79
2023/08/28 02:36:08;;;;;;;5.07;1.55;;;12.70;99.90;;;;;;5067328;28;20078;-77
2023/08/28 02:38:34;;;;;;;2.65;1.58;;;12.70;99.90;;;;;;5066702;28;20536;-78
2023/08/28 02:41:07;;;;;;;3.35;1.70;;;12.70;99.90;;;;;;5066391;28;20039;-77
2023/08/28 02:43:33;;;;;;;3.35;1.50;;;12.70;99.90;;;;;;5067590;28;20446;-77
2023/08/28 02:45:59;;;;;;;3.63;1.35;;;12.60;99.90;;;;;;5066751;28;20040;-78
2023/08/28 02:48:24;;;;;;;1.73;1.30;;;12.60;99.90;;;;;;5074994;28;20118;-78
2023/08/28 02:50:50;;;;;;;3.30;1.50;;;12.60;99.90;;;;;;5055599;28;20041;-78
2023/08/28 02:53:16;;;;;;;3.33;1.70;;;12.70;99.90;;;;;;5065414;28;20036;-78
2023/08/28 02:55:42;;;;;;;3.30;1.75;;;12.60;99.90;;;;;;5063654;28;20033;-78
2023/08/28 02:58:08;;;;;;;2.42;1.83;;;12.70;99.90;;;;;;5070002;28;20032;-78
2023/08/28 03:00:36;;;;;;;3.22;2.00;;;12.70;99.90;;;;;;5068809;28;20499;-78
2023/08/28 03:03:03;;;;;;;5.38;1.70;;;12.70;99.90;;;;;;5070339;28;20458;-78
2023/08/28 03:05:29;;;;;;;2.63;1.70;;;12.60;99.90;;;;;;5058750;28;20066;-78
2023/08/28 03:07:54;;;;;;;3.25;1.90;;;12.60;99.90;;;;;;5075060;28;20040;-78
2023/08/28 03:10:20;;;;;;;3.75;2.10;;;12.60;99.90;;;;;;5072958;28;20063;-78
2023/08/28 03:12:45;;;;;;;3.72;2.33;;;12.60;99.90;;;;;;5058472;28;20120;-78
2023/08/28 03:15:11;;;;;;;3.85;2.03;;;12.50;99.90;;;;;;5062966;28;20040;-78
2023/08/28 03:17:37;;;;;;;6.63;2.38;;;12.50;99.90;;;;;;5063573;28;20032;-78
2023/08/28 03:20:03;;;;;;;4.07;2.30;;;12.50;99.90;;;;;;5065756;28;20032;-78
2023/08/28 03:22:29;;;;;;;4.47;2.35;;;12.50;99.90;;;;;;5091488;28;20074;-78
2023/08/28 03:24:54;;;;;;;3.58;2.20;;;12.50;99.90;;;;;;5074654;28;20082;-78
2023/08/28 03:27:21;;;;;;;4.15;2.50;;;12.60;99.90;;;;;;5074289;28;20028;-78
2023/08/28 03:29:47;;;;;;;2.88;2.40;;;12.50;99.90;;;;;;5065837;28;20032;-78
2023/08/28 03:32:13;;;;;;;3.33;2.50;;;12.60;99.90;;;;;;5049084;28;20526;-78
2023/08/28 03:34:38;;;;;;;5.80;2.50;;;12.60;99.90;;;;;;5070540;28;20504;-78
2023/08/28 03:37:04;;;;;;;5.88;2.40;;;12.60;99.90;;;;;;5066287;28;20028;-78
2023/08/28 03:39:29;;;;;;;4.75;2.53;;;12.60;99.90;;;;;;5062860;28;20040;-78
2023/08/28 03:41:55;;;;;;;3.85;2.67;;;12.60;99.90;;;;;;5063105;28;20165;-78
2023/08/28 03:44:20;;;;;;;4.72;2.42;;;12.60;99.90;;;;;;5061408;28;20418;-78
2023/08/28 03:46:46;;;;;;;3.05;2.30;;;12.60;99.90;;;;;;5063452;28;20123;-78
2023/08/28 03:49:11;;;;;;;4.57;2.78;;;12.60;99.90;;;;;;5069420;28;20044;-78
2023/08/28 03:51:37;;;;;;;5.78;2.58;;;12.60;99.90;;;;;;5062044;28;20037;-78
2023/08/28 03:54:02;;;;;;;3.75;2.40;;;12.60;99.90;;;;;;5069978;28;20522;-78
2023/08/28 03:56:29;;;;;;;3.45;2.40;;;12.60;99.90;;;;;;5057500;28;20040;-78
2023/08/28 03:58:55;;;;;;;3.83;2.35;;;12.60;99.90;;;;;;5073757;28;20036;-78
2023/08/28 04:01:21;;;;;;;3.95;2.72;;;12.60;99.90;;;;;;5066005;28;20039;-78
2023/08/28 04:03:47;;;;;;;3.00;2.40;;;12.50;99.90;;;;;;5065762;28;20089;-78
2023/08/28 04:06:12;;;;;;;4.32;2.88;;;12.50;99.90;;;;;;5064320;28;20067;-78
2023/08/28 04:08:38;;;;;;;2.80;2.40;;;12.50;99.90;;;;;;5065666;28;20028;-78
2023/08/28 04:11:03;;;;;;;5.35;2.58;;;12.50;99.90;;;;;;5073696;28;20039;-78
2023/08/28 04:13:29;;;;;;;4.20;2.90;;;12.40;99.90;;;;;;5069521;28;20047;-78
2023/08/28 04:15:54;;;;;;;15.93;2.97;;;12.40;99.90;;;;;;5042710;28;20105;-78
2023/08/28 04:18:20;;;;;;;8.38;2.88;;;12.40;99.90;;;;;;5064077;28;20096;-78
2023/08/28 04:20:45;;;;;;;6.68;3.10;;;12.40;99.90;;;;;;5073791;28;20035;-78
2023/08/28 04:23:13;;;;;;;4.45;2.60;;;12.40;99.90;;;;;;5065353;28;20035;-78
2023/08/28 04:25:38;;;;;;;4.35;2.80;;;12.40;99.90;;;;;;5073845;28;20174;-77
2023/08/28 04:28:04;;;;;;;3.75;2.78;;;12.30;99.90;;;;;;5073367;28;20472;-78
2023/08/28 04:30:29;;;;;;;3.30;2.40;;;12.30;99.90;;;;;;5056589;28;20059;-78
2023/08/28 04:32:55;;;;;;;4.45;2.40;;;12.30;99.90;;;;;;5067596;28;20166;-78
2023/08/28 04:35:21;;;;;;;3.40;2.40;;;12.30;99.90;;;;;;5063368;28;20044;-78
2023/08/28 04:37:46;;;;;;;4.72;2.80;;;12.30;99.90;;;;;;5062149;28;20040;-78
2023/08/28 04:40:12;;;;;;;4.45;2.60;;;12.30;99.90;;;;;;5065521;28;20036;-78
2023/08/28 04:42:37;;;;;;;5.45;2.72;;;12.30;99.90;;;;;;5072844;28;20495;-78
2023/08/28 04:45:03;;;;;;;3.40;2.35;;;12.30;99.90;;;;;;5065290;28;20063;-78
2023/08/28 04:47:29;;;;;;;2.80;2.15;;;12.30;99.90;;;;;;5054355;28;20533;-78
2023/08/28 04:49:55;;;;;;;3.05;2.22;;;12.30;99.90;;;;;;5069420;28;20040;-78
2023/08/28 04:52:22;;;;;;;3.95;2.50;;;12.30;99.90;;;;;;5071283;28;20079;-78
2023/08/28 04:54:47;;;;;;;3.17;2.25;;;12.20;99.90;;;;;;5062718;28;20037;-78
2023/08/28 04:57:13;;;;;;;3.10;2.40;;;12.20;99.90;;;;;;5064378;28;20349;-78
2023/08/28 04:59:39;;;;;;;3.67;2.50;;;12.20;99.90;;;;;;5065817;28;20048;-78
2023/08/28 05:02:04;;;;;;;5.85;2.67;;;12.20;99.90;;;;;;5073017;28;20496;-78
2023/08/28 05:04:30;;;;;;;3.88;3.00;;;12.20;99.90;;;;;;5060525;28;20073;-78
2023/08/28 05:06:55;;;;;;;3.95;2.83;;;12.30;99.90;;;;;;5066002;28;20063;-78
2023/08/28 05:09:21;;;;;;;3.85;2.65;;;12.30;99.90;;;;;;5082060;28;20044;-78
2023/08/28 05:11:46;;;;;;;5.85;2.83;;;12.40;99.90;;;;;;5056697;28;20042;-78
2023/08/28 05:14:12;;;;;;;5.20;2.55;;;12.40;99.90;;;;;;5063231;28;20051;-78
2023/08/28 05:16:37;;;;;;;3.85;2.72;;;12.40;99.90;;;;;;5069014;28;20373;-78
2023/08/28 05:19:03;;;;;;;5.80;2.92;;;12.50;99.90;;;;;;5063661;28;20032;-78
2023/08/28 05:21:28;;;;;;;4.32;2.83;;;12.50;99.90;;;;;;5063162;28;20042;-78
2023/08/28 05:23:54;;;;;;;7.07;2.70;;;12.60;99.90;;;;;;5062938;28;20039;-78
2023/08/28 05:26:20;;;;;;;4.38;2.70;;;12.60;99.90;;;;;;5061276;28;20377;-78
2023/08/28 05:28:45;;;;;;;6.30;3.13;;;12.70;99.90;;;;;;5065495;28;20036;-78
2023/08/28 05:31:11;;;;;;;3.53;2.60;;;12.70;99.90;;;;;;5069064;28;20032;-78
2023/08/28 05:33:36;;;;;;;4.57;2.60;;;12.80;99.90;;;;;;5064381;28;20036;-78
2023/08/28 05:36:03;;;;;;;5.60;2.90;;;12.80;99.90;;;;;;5070290;28;20046;-78
2023/08/28 05:38:29;;;;;;;4.72;2.47;;;12.90;99.90;;;;;;5064412;28;20040;-78
2023/08/28 05:40:54;;;;;;;3.10;2.40;;;13.00;99.90;;;;;;5063209;28;20032;-78
2023/08/28 05:43:19;;;;;;;5.15;2.72;;;13.10;99.90;;;;;;5064867;28;20052;-78
2023/08/28 05:45:46;;;;;;;3.38;2.40;;;13.10;99.90;;;;;;5070355;28;20040;-78
2023/08/28 05:48:12;;;;;;;3.22;2.25;;;13.20;99.90;;;;;;5071880;28;20077;-78
2023/08/28 05:50:39;;;;;;;4.53;2.50;;;13.30;99.90;;;;;;5073301;28;20482;-78
2023/08/28 05:53:06;;;;;;;3.85;2.72;;;13.40;99.90;;;;;;5072635;28;20052;-78
2023/08/28 05:55:32;;;;;;;4.35;2.60;;;13.50;99.90;;;;;;5075630;28;20162;-78
2023/08/28 05:57:57;;;;;;;4.07;2.50;;;13.60;99.90;;;;;;5075153;28;20118;-78
2023/08/28 06:00:23;;;;;;;4.13;2.88;;;13.60;99.90;;;;;;5076164;28;20415;-78
2023/08/28 06:02:49;;;;;;;3.05;2.50;;;13.70;99.90;;;;;;5072176;28;20043;-78
2023/08/28 06:05:14;;;;;;;4.63;2.13;;;13.80;99.90;;;;;;5073741;28;20110;-78
2023/08/28 06:07:40;;;;;;;4.65;2.65;;;13.80;99.90;;;;;;5073914;28;20495;-78
2023/08/28 06:10:06;;;;;;;4.95;2.88;;;13.90;99.90;;;;;;5073305;28;20036;-78
2023/08/28 06:12:31;;;;;;;3.95;2.50;;;14.00;99.90;;;;;;5068353;28;20077;-78
2023/08/28 06:14:57;;;;;;;4.57;2.60;;;14.00;99.90;;;;;;5054131;28;20113;-78
2023/08/28 06:17:23;;;;;;;4.25;2.35;;;14.10;99.90;;;;;;5091945;28;20117;-78
2023/08/28 06:19:49;;;;;;;4.60;2.40;;;14.20;99.90;;;;;;5075303;28;20032;-78
2023/08/28 06:22:15;;;;;;;4.15;2.30;;;14.30;99.90;;;;;;5076204;28;20093;-78
2023/08/28 06:24:42;;;;;;;3.97;2.30;;;14.40;99.90;;;;;;5076147;28;20044;-78
2023/08/28 06:27:07;;;;;;;10.35;2.63;;;14.50;99.90;;;;;;5075877;28;20047;-78
2023/08/28 06:29:33;;;;;;;4.85;2.50;;;14.60;99.90;;;;;;5075800;28;20028;-78
2023/08/28 06:31:58;;;;;;;3.55;2.63;;;14.60;99.90;;;;;;5094021;28;20066;-78
2023/08/28 06:34:24;;;;;;;3.58;2.45;;;14.70;99.90;;;;;;5093587;28;20047;-78
2023/08/28 06:36:51;;;;;;;4.10;2.45;;;14.80;99.90;;;;;;5069368;28;20071;-78
2023/08/28 06:39:18;;;;;;;3.83;2.70;;;14.90;99.90;;;;;;5072901;28;20032;-78
2023/08/28 06:41:43;;;;;;;4.97;2.70;;;14.60;99.90;;;;;;5075879;28;20043;-78
2023/08/28 06:44:09;;;;;;;4.57;2.78;;;15.10;99.90;;;;;;5075380;28;20032;-78
2023/08/28 06:46:36;;;;;;;3.58;2.38;;;15.10;99.90;;;;;;5072719;28;20126;-78
2023/08/28 06:49:02;;;;;;;5.97;2.28;;;15.30;99.90;;;;;;5079096;28;20040;-78
2023/08/28 06:51:28;;;;;;;4.18;2.47;;;15.40;99.90;;;;;;5071587;28;20044;-79
2023/08/28 06:53:53;;;;;;;3.80;2.60;;;15.40;99.90;;;;;;5064116;28;20399;-79
2023/08/28 06:56:19;;;;;;;3.17;2.30;;;15.50;99.90;;;;;;5073577;28;20405;-77
2023/08/28 06:58:45;;;;;;;3.55;2.55;;;15.50;99.90;;;;;;5073763;28;20509;-77
2023/08/28 07:01:11;;;;;;;3.47;2.30;;;15.70;99.90;;;;;;5073275;28;20028;-75
2023/08/28 07:03:36;;;;;;;4.60;2.10;;;15.70;99.90;;;;;;5072353;28;20093;-75
2023/08/28 07:06:02;;;;;;;3.25;1.95;;;15.80;99.90;;;;;;5066865;28;20040;-75
2023/08/28 07:08:27;;;;;;;5.85;2.22;;;15.90;99.90;;;;;;5070711;28;20036;-75
2023/08/28 07:10:53;;;;;;;3.20;1.95;;;16.00;99.90;;;;;;5093735;28;20039;-75
2023/08/28 07:13:18;;;;;;;2.60;1.90;;;16.10;99.90;;;;;;5055841;28;20090;-75
2023/08/28 07:15:44;;;;;;;4.60;2.15;;;16.20;99.90;;;;;;5065401;28;20439;-75
2023/08/28 07:18:09;;;;;;;4.45;2.20;;;16.30;99.90;;;;;;5061663;28;20389;-75
2023/08/28 07:20:35;;;;;;;4.15;1.98;;;16.40;99.90;;;;;;5061252;28;20085;-75
2023/08/28 07:23:01;;;;;;;3.05;2.00;;;16.50;99.90;;;;;;5075161;28;20036;-75
2023/08/28 07:25:27;;;;;;;4.40;1.80;;;16.60;99.90;;;;;;5075138;28;20120;-74
2023/08/28 07:27:54;;;;;;;3.80;1.90;;;16.60;99.90;;;;;;5075305;28;20054;-75
2023/08/28 07:30:20;;;;;;;5.00;2.25;;;16.80;99.90;;;;;;5066218;28;20542;-75
2023/08/28 07:32:46;;;;;;;3.30;1.75;;;16.90;99.90;;;;;;5063414;28;20041;-75
2023/08/28 07:35:11;;;;;;;6.32;2.22;;;17.10;99.90;;;;;;5083510;28;20530;-75
2023/08/28 07:37:37;;;;;;;4.57;2.10;;;17.20;99.90;;;;;;5071448;28;20464;-75
2023/08/28 07:40:04;;;;;;;3.03;1.88;;;17.30;99.90;;;;;;5069273;28;20032;-75
2023/08/28 07:42:30;;;;;;;5.85;1.77;;;17.40;99.90;;;;;;5068312;28;20548;-76
2023/08/28 07:44:56;;;;;;;4.95;1.73;;;17.50;99.90;;;;;;5076938;28;20040;-75
2023/08/28 07:47:21;;;;;;;3.13;1.42;;;17.60;99.90;;;;;;5076040;28;20032;-78
2023/08/28 07:49:47;;;;;;;2.67;1.48;;;17.70;99.90;;;;;;5055916;28;20556;-78
2023/08/28 07:52:13;;;;;;;3.35;1.67;;;17.80;99.90;;;;;;5071191;28;20043;-78
2023/08/28 07:54:39;;;;;;;4.30;1.75;;;17.90;99.90;;;;;;5072294;28;20411;-78
2023/08/28 07:57:04;;;;;;;4.95;1.92;;;17.90;99.90;;;;;;5072101;28;20506;-78
2023/08/28 07:59:31;;;;;;;3.67;1.55;;;18.00;99.90;;;;;;5071764;28;20463;-78
2023/08/28 08:01:57;;;;;;;3.15;1.40;;;18.10;99.90;;;;;;5072704;28;20053;-78
2023/08/28 08:04:23;;;;;;;3.55;1.45;;;18.20;99.90;;;;;;5075130;28;20392;-78
2023/08/28 08:06:49;;;;;;;5.60;1.40;;;18.30;99.90;;;;;;5074037;28;20033;-78
2023/08/28 08:09:14;;;;;;;3.40;1.38;;;18.20;99.90;;;;;;5075213;28;21776;-78
2023/08/28 08:11:40;;;;;;;3.53;1.17;;;18.40;99.90;;;;;;5052656;28;20089;-78
2023/08/28 08:14:06;;;;;;;3.75;1.13;;;18.40;99.90;;;;;;5075178;28;20170;-77
2023/08/28 08:16:31;;;;;;;5.03;1.10;;;18.30;99.90;;;;;;5060199;28;20122;-78
2023/08/28 08:18:57;;;;;;;2.65;1.13;;;18.20;99.90;;;;;;5073688;28;20032;-76
2023/08/28 08:21:22;;;;;;;5.10;1.17;;;18.20;99.90;;;;;;5065647;28;20132;-77
2023/08/28 08:23:49;;;;;;;2.53;1.00;;;18.20;99.90;;;;;;5092201;28;20032;-77
2023/08/28 08:26:14;;;;;;;3.22;1.00;;;18.30;99.90;;;;;;5073940;28;20426;-78
2023/08/28 08:28:41;;;;;;;3.40;1.17;;;18.30;99.90;;;;;;5073816;28;20032;-77
2023/08/28 08:31:06;;;;;;;2.58;0.90;;;18.50;99.90;;;;;;5051936;28;20032;-77
2023/08/28 08:33:32;;;;;;;2.33;0.80;;;18.60;99.90;;;;;;5072844;28;20044;-77
2023/08/28 08:35:57;;;;;;;4.20;0.90;;;18.80;99.90;;;;;;5073244;28;20051;-77
2023/08/28 08:38:23;;;;;;;5.30;0.90;;;19.00;99.90;;;;;;5073187;28;20126;-78
2023/08/28 08:40:58;;;;;;;3.25;1.02;;;19.00;99.90;;;;;;5073747;28;20531;-78
2023/08/28 08:43:25;;;;;;;2.95;0.90;;;19.40;99.90;;;;;;5046231;28;20086;-77
2023/08/28 08:45:57;;;;;;;3.30;0.93;;;19.30;99.90;;;;;;5073320;28;20097;-78
2023/08/28 08:48:24;;;;;;;3.05;0.95;;;19.20;99.90;;;;;;5069382;28;20052;-78
2023/08/28 08:50:50;;;;;;;6.18;1.00;;;19.30;99.90;;;;;;5073678;28;20050;-78
2023/08/28 08:53:27;;;;;;;3.13;0.80;;;19.40;99.90;;;;;;5073310;28;20040;-78
2023/08/28 08:55:57;;;;;;;3.03;0.80;;;19.20;99.90;;;;;;5073205;28;20032;-77
2023/08/28 08:58:23;;;;;;;2.70;0.68;;;19.00;99.90;;;;;;5072928;28;20085;-77
2023/08/28 09:00:50;;;;;;;5.25;0.88;;;18.60;99.90;;;;;;5073305;28;20028;-78
2023/08/28 09:03:17;;;;;;;1.85;0.68;;;18.20;99.90;;;;;;5078448;28;20024;-78
2023/08/28 09:05:44;;;;;;;2.17;0.85;;;18.20;99.90;;;;;;5047615;28;20035;-78
2023/08/28 09:08:10;;;;;;;1.33;0.50;;;18.10;99.90;;;;;;5065059;28;20457;-78
2023/08/28 09:10:36;;;;;;;4.03;0.82;;;18.20;99.90;;;;;;5071083;28;20221;-77
2023/08/28 09:13:02;;;;;;;2.10;0.70;;;18.30;99.90;;;;;;5071612;28;20106;-78
2023/08/28 09:15:27;;;;;;;3.90;0.80;;;18.50;99.90;;;;;;5047920;28;20119;-77
2023/08/28 09:17:53;;;;;;;4.47;0.65;;;18.80;99.90;;;;;;5070995;28;20115;-77
2023/08/28 09:20:22;;;;;;;1.33;0.60;;;18.90;99.90;;;;;;5071897;28;20119;-78
2023/08/28 09:22:53;;;;;;;2.95;0.60;;;19.00;99.90;;;;;;5072829;28;20118;-78
2023/08/28 09:25:21;;;;;;;3.60;0.70;;;19.30;99.90;;;;;;5073138;28;20410;-78
2023/08/28 09:27:48;;;;;;;5.43;0.73;;;19.60;99.90;;;;;;5072925;28;20406;-79
2023/08/28 09:30:38;;;;;;;2.22;0.70;;;20.00;99.90;;;;;;5072979;28;20028;-79
2023/08/28 09:33:07;;;;;;;3.97;0.85;;;20.30;99.90;;;;;;5072904;28;20111;-78
2023/08/28 09:35:38;;;;;;;3.55;0.93;;;20.50;99.90;;;;;;5072542;28;20047;-78
2023/08/28 09:38:04;;;;;;;2.85;0.65;;;20.40;99.90;;;;;;5072653;28;20036;-78
2023/08/28 09:40:36;;;;;;;2.08;0.65;;;20.20;99.90;;;;;;5072202;28;20495;-78
2023/08/28 09:43:12;;;;;;;3.55;0.68;;;19.80;99.90;;;;;;5071500;28;20035;-78
2023/08/28 09:45:39;;;;;;;1.42;0.77;;;19.50;99.90;;;;;;5072040;28;20065;-78
2023/08/28 09:48:06;;;;;;;7.32;1.40;;;19.10;99.90;;;;;;5072641;28;20036;-79
2023/08/28 09:50:33;;;;;;;2.30;1.00;;;18.70;99.90;;;;;;5073201;28;20394;-79
2023/08/28 09:53:12;;;;;;;3.60;0.77;;;18.40;99.90;;;;;;5072846;28;20028;-78
2023/08/28 09:55:46;;;;;;;2.95;0.90;;;18.00;99.90;;;;;;5071075;28;20036;-78
2023/08/28 09:58:12;;;;;;;1.77;0.70;;;17.60;99.90;;;;;;5072382;28;20028;-78
2023/08/28 10:00:39;;;;;;;1.35;0.70;;;17.30;99.90;;;;;;5072712;28;20038;-79
2023/08/28 10:03:13;;;;;;;2.05;1.02;;;17.10;99.90;;;;;;5068813;28;20039;-78
2023/08/28 10:05:46;;;;;;;4.07;1.13;;;16.90;99.90;;;;;;5071551;28;20123;-78
2023/08/28 10:08:13;;;;;;;2.08;0.70;;;16.80;99.90;;;;;;5070259;28;20048;-77
2023/08/28 10:10:41;;;;;;;3.67;1.00;;;16.70;99.90;;;;;;5064057;28;20040;-78
2023/08/28 10:13:13;;;;;;;2.75;1.10;;;16.70;99.90;;;;;;5088368;28;20403;-77
2023/08/28 10:15:46;;;;;;;4.53;0.73;;;16.80;99.90;;;;;;5072666;28;20115;-78
2023/08/28 10:18:20;;;;;;;2.78;0.95;;;16.70;99.90;;;;;;5070223;28;20042;-78
2023/08/28 10:20:46;;;;;;;;;;;16.80;99.90;;;;;;5072272;28;20105;-78
2023/08/28 10:23:13;;;;;;;1.67;0.80;;;17.00;99.90;;;;;;5072542;28;19942;-78
2023/08/28 10:25:40;;;;;;;2.95;1.20;;;17.20;99.90;;;;;;5072643;28;20086;-79
2023/08/28 10:28:06;;;;;;;1.20;0.60;;;17.30;99.90;;;;;;5070014;28;20040;-79
2023/08/28 10:30:34;;;;;;;1.05;0.60;;;17.40;99.90;;;;;;5074930;28;20093;-79
2023/08/28 10:33:03;;;;;;;3.05;0.82;;;17.50;99.90;;;;;;5075175;28;20039;-78
2023/08/28 10:35:29;;;;;;;3.70;1.00;;;17.60;99.90;;;;;;5072369;28;20075;-78
2023/08/28 10:37:55;;;;;;;1.58;0.68;;;17.60;99.90;;;;;;5069698;28;20089;-78
2023/08/28 10:40:21;;;;;;;2.10;0.60;;;17.80;99.90;;;;;;5059454;28;20428;-78
2023/08/28 10:42:49;;;;;;;1.10;0.65;;;17.90;99.90;;;;;;5060227;28;20036;-78
2023/08/28 10:45:14;;;;;;;1.70;0.70;;;18.10;99.90;;;;;;5074041;28;20039;-79
2023/08/28 10:47:48;;;;;;;2.25;0.95;;;18.30;99.90;;;;;;5077509;28;20044;-79
2023/08/28 10:50:13;;;;;;;3.03;0.80;;;18.50;99.90;;;;;;5077030;28;20032;-78
2023/08/28 10:52:42;;;;;;;2.75;0.93;;;18.60;99.90;;;;;;5073378;28;20515;-78
2023/08/28 10:55:09;;;;;;;2.05;0.88;;;18.70;99.90;;;;;;5075275;28;20028;-78
2023/08/28 10:57:39;;;;;;;1.27;0.52;;;18.90;99.90;;;;;;5067860;28;20059;-77
2023/08/28 11:00:20;;;;;;;1.20;0.73;;;18.80;99.90;;;;;;5074235;28;20036;-78
2023/08/28 11:03:21;;;;;;;2.08;0.80;;;18.90;99.90;;;;;;5072118;28;20493;-79
2023/08/28 11:05:47;;;;;;;3.47;0.90;;;19.00;99.90;;;;;;4978391;28;20038;-79
2023/08/28 11:08:14;;;;;;;1.45;0.65;;;19.00;99.90;;;;;;5056898;28;20071;-79
2023/08/28 11:10:44;;;;;;;3.22;0.70;;;19.00;99.90;;;;;;5071201;28;20452;-79
2023/08/28 11:13:24;;;;;;;2.08;0.75;;;19.00;99.90;;;;;;5086238;28;20127;-78
2023/08/28 11:16:02;;;;;;;2.42;0.98;;;19.10;99.90;;;;;;5072493;28;20040;-74
2023/08/28 11:18:29;;;;;;;4.53;0.80;;;19.40;99.90;;;;;;5073674;28;20040;-75
2023/08/28 11:21:02;;;;;;;1.73;0.70;;;19.80;99.90;;;;;;5069882;28;20032;-75
2023/08/28 11:23:36;;;;;;;3.35;0.80;;;20.40;99.90;;;;;;5076191;28;20712;-75
2023/08/28 11:26:07;;;;;;;2.72;0.70;;;20.90;99.90;;;;;;5088987;28;20047;-75
2023/08/28 11:28:47;;;;;;;3.33;1.00;;;21.20;99.90;;;;;;5060467;28;20075;-76
2023/08/28 11:31:14;;;;;;;4.22;0.80;;;21.10;99.90;;;;;;5073564;28;20527;-76
2023/08/28 11:33:43;;;;;;;1.73;0.70;;;20.70;99.90;;;;;;5074606;28;20051;-75
2023/08/28 11:36:11;;;;;;;3.17;0.80;;;20.20;99.90;;;;;;5075219;28;20549;-75
2023/08/28 11:38:39;;;;;;;3.38;0.90;;;19.70;99.90;;;;;;5077629;28;20036;-76
2023/08/28 11:41:08;;;;;;;2.85;0.73;;;19.10;99.90;;;;;;5073134;28;20036;-76
2023/08/28 11:43:35;;;;;;;2.90;0.65;;;18.70;99.90;;;;;;5057024;28;20073;-76
2023/08/28 11:46:03;;;;;;;2.17;0.80;;;18.40;99.90;;;;;;5058020;28;20067;-75
2023/08/28 11:48:35;;;;;;;1.48;0.80;;;18.40;99.90;;;;;;5073923;28;20071;-76
2023/08/28 11:51:03;;;;;;;2.85;0.80;;;18.40;99.90;;;;;;5074258;28;20060;-76
2023/08/28 11:53:42;;;;;;;2.97;1.00;;;18.50;99.90;;;;;;5074069;28;20467;-75
2023/08/28 11:56:10;;;;;;;2.28;0.88;;;18.60;99.90;;;;;;5073761;28;20154;-75
2023/08/28 11:58:39;;;;;;;0.95;0.60;;;18.70;99.90;;;;;;5078183;28;20060;-76
2023/08/28 12:01:08;;;;;;;2.15;0.75;;;18.90;99.90;;;;;;5069197;28;20056;-76
2023/08/28 12:03:37;;;;;;;2.25;0.80;;;19.10;99.90;;;;;;5077300;28;20046;-76
2023/08/28 12:06:06;;;;;;;1.85;0.80;;;19.20;99.90;;;;;;5074454;28;20031;-76
2023/08/28 12:08:33;;;;;;;1.13;0.65;;;19.40;99.90;;;;;;5077307;28;20092;-76
2023/08/28 12:11:00;;;;;;;1.35;0.70;;;19.50;99.90;;;;;;5073788;28;20100;-77
2023/08/28 12:13:25;;;;;;;3.17;0.80;;;19.60;99.90;;;;;;5077419;28;20406;-76
2023/08/28 12:15:51;;;;;;;1.13;0.50;;;19.70;99.90;;;;;;5074389;28;20039;-76
2023/08/28 12:18:16;;;;;;;1.15;0.52;;;19.90;99.90;;;;;;5072839;28;20032;-76
2023/08/28 12:20:42;;;;;;;2.58;0.70;;;20.10;99.90;;;;;;5057416;28;20181;-76
2023/08/28 12:23:11;;;;;;;1.50;0.52;;;20.20;99.90;;;;;;5074498;28;20388;-75
2023/08/28 12:25:41;;;;;;;1.27;0.60;;;20.30;99.90;;;;;;5072834;28;20119;-76
2023/08/28 12:28:09;;;;;;;2.30;0.60;;;20.50;99.90;;;;;;5073223;28;20119;-75
2023/08/28 12:30:39;;;;;;;1.08;0.60;;;20.70;99.90;;;;;;5056405;28;20032;-76
2023/08/28 12:33:05;;;;;;;1.88;0.63;;;20.90;99.90;;;;;;5075218;28;20490;-76
2023/08/28 12:35:39;;;;;;;2.47;0.70;;;21.00;99.90;;;;;;5072236;28;20105;-76
2023/08/28 12:38:05;;;;;;;2.28;0.82;;;21.00;99.90;;;;;;5073248;28;20031;-76
2023/08/28 12:40:40;;;;;;;2.67;0.75;;;20.80;99.90;;;;;;5073146;28;20039;-76
2023/08/28 12:43:10;;;;;;;2.08;0.50;;;20.70;99.90;;;;;;5074573;28;20038;-76
2023/08/28 12:45:36;;;;;;;2.15;0.52;;;20.40;99.90;;;;;;5073989;28;20048;-75
2023/08/28 12:48:02;;;;;;;2.90;0.80;;;20.30;99.90;;;;;;5072673;28;20670;-76